Archival Weather

Doha Intl Airport

Doha Intl Airport, Qatar (OTBD)

Report from: Thursday, September 21, 2023 9:00 PM +03
Current time: Saturday, March 2, 2024 1:19 PM +03

Current weather – Weather history – Daily summaries
Weather forecast

Temperature36.0°C (96.8°F)
Heat index35.5°C (95.8°F)
Dew point14.0°C (57.2°F)
Winds 7 kts (3.6 m/s, 8.1 mph) North-Northwest (340°)
Clouds Sky clear
Altimeter29.68 in.Hg (1005 mB)
Relative humidity27 %
Density altitude2,877 ft. (877 m)
Remarks Fully automated report
Ceiling and visibility OK
No significant changes expected in the next two hours
Flight conditions Visual Meteorological Conditions
Raw dataOTBD 211800Z AUTO 34007KT CAVOK 36/14 Q1005 NOSIG
An error has occurred. This application may no longer respond until reloaded. Reload 🗙